createdAt,value
2023-04-16T00:00:33.364Z,13.70
2023-04-16T00:03:00.992Z,13.60
2023-04-16T00:05:28.568Z,13.60
2023-04-16T00:07:55.957Z,13.60
2023-04-16T00:10:23.271Z,13.50
2023-04-16T00:12:50.614Z,13.50
2023-04-16T00:15:17.836Z,13.50
2023-04-16T00:17:45.352Z,13.60
2023-04-16T00:20:12.734Z,13.60
2023-04-16T00:22:39.925Z,13.60
2023-04-16T00:25:07.403Z,13.50
2023-04-16T00:27:34.740Z,13.50
2023-04-16T00:30:02.008Z,13.40
2023-04-16T00:32:33.053Z,13.40
2023-04-16T00:35:00.630Z,13.30
2023-04-16T00:37:27.861Z,13.30
2023-04-16T00:39:55.140Z,13.30
2023-04-16T00:42:22.381Z,13.20
2023-04-16T00:44:49.631Z,13.20
2023-04-16T00:47:17.375Z,13.30
2023-04-16T00:49:44.944Z,13.20
2023-04-16T00:52:12.527Z,13.10
2023-04-16T00:54:41.289Z,13.00
2023-04-16T00:57:10.104Z,13.00
2023-04-16T00:59:37.480Z,12.90
2023-04-16T01:02:04.850Z,12.90
2023-04-16T01:04:32.409Z,12.90
2023-04-16T01:07:00.648Z,12.90
2023-04-16T01:09:28.146Z,12.90
2023-04-16T01:11:55.735Z,12.80
2023-04-16T01:14:22.966Z,12.80
2023-04-16T01:16:50.381Z,12.80
2023-04-16T01:19:17.865Z,12.80
2023-04-16T01:21:45.582Z,12.80
2023-04-16T01:24:13.011Z,12.80
2023-04-16T01:26:40.362Z,12.80
2023-04-16T01:29:07.847Z,12.80
2023-04-16T01:31:35.461Z,12.80
2023-04-16T01:34:06.674Z,12.70
2023-04-16T01:36:35.741Z,12.60
2023-04-16T01:39:03.410Z,12.60
2023-04-16T01:41:32.053Z,12.60
2023-04-16T01:43:59.426Z,12.60
2023-04-16T01:46:32.361Z,12.60
2023-04-16T01:48:59.861Z,12.60
2023-04-16T01:51:28.129Z,12.60
2023-04-16T01:53:56.130Z,12.60
2023-04-16T01:56:23.434Z,12.60
2023-04-16T01:58:51.041Z,12.50
2023-04-16T02:01:19.733Z,12.40
2023-04-16T02:03:48.861Z,12.40
2023-04-16T02:06:16.576Z,12.40
2023-04-16T02:08:44.212Z,12.30
2023-04-16T02:11:11.718Z,12.40
2023-04-16T02:13:39.772Z,12.30
2023-04-16T02:16:07.417Z,12.40
2023-04-16T02:19:07.189Z,12.40
2023-04-16T02:21:36.498Z,12.40
2023-04-16T02:24:04.155Z,12.40
2023-04-16T02:26:31.869Z,12.40
2023-04-16T02:29:05.861Z,12.40
2023-04-16T02:31:44.610Z,12.30
2023-04-16T02:34:13.423Z,12.30
2023-04-16T02:36:41.827Z,12.30
2023-04-16T02:39:10.550Z,12.20
2023-04-16T02:41:38.695Z,12.30
2023-04-16T02:44:06.324Z,12.20
2023-04-16T02:46:33.697Z,12.30
2023-04-16T02:49:01.103Z,12.20
2023-04-16T02:51:29.420Z,12.30
2023-04-16T02:53:56.766Z,12.30
2023-04-16T02:56:23.994Z,12.20
2023-04-16T02:58:51.365Z,12.00
2023-04-16T03:01:18.744Z,11.90
2023-04-16T03:03:46.202Z,11.90
2023-04-16T03:06:13.792Z,11.80
2023-04-16T03:08:41.393Z,11.90
2023-04-16T03:11:08.594Z,11.80
2023-04-16T03:13:36.323Z,11.80
2023-04-16T03:16:03.790Z,11.70
2023-04-16T03:18:31.203Z,11.60
2023-04-16T03:20:58.407Z,11.50
2023-04-16T03:23:25.785Z,11.50
2023-04-16T03:25:53.233Z,11.50
2023-04-16T03:28:20.513Z,11.60
2023-04-16T03:30:52.869Z,11.60
2023-04-16T03:33:21.352Z,11.50
2023-04-16T03:35:56.169Z,11.50
2023-04-16T03:38:25.870Z,11.60
2023-04-16T03:40:55.753Z,11.60
2023-04-16T03:43:23.588Z,11.70
2023-04-16T03:45:51.452Z,11.60
2023-04-16T03:48:22.252Z,11.60
2023-04-16T03:50:49.544Z,11.60
2023-04-16T03:53:19.465Z,11.60
2023-04-16T03:55:53.543Z,11.50
2023-04-16T03:58:22.127Z,11.60
2023-04-16T04:00:49.768Z,11.60
2023-04-16T04:03:18.712Z,11.60
2023-04-16T04:05:48.978Z,11.70
2023-04-16T04:08:23.093Z,11.70
2023-04-16T04:10:51.961Z,11.80
2023-04-16T04:13:21.173Z,11.80
2023-04-16T04:15:51.595Z,11.90
2023-04-16T04:18:19.373Z,11.90
2023-04-16T04:20:46.597Z,11.90
2023-04-16T04:23:16.616Z,11.90
2023-04-16T04:25:45.465Z,12.00
2023-04-16T04:28:13.512Z,12.00
2023-04-16T04:30:40.866Z,12.00
2023-04-16T04:33:08.469Z,12.10
2023-04-16T04:35:35.989Z,12.20
2023-04-16T04:38:03.688Z,12.20
2023-04-16T04:40:31.575Z,12.20
2023-04-16T04:42:59.124Z,12.30
2023-04-16T04:45:26.899Z,12.30
2023-04-16T04:47:55.153Z,12.30
2023-04-16T04:50:23.018Z,12.30
2023-04-16T04:52:50.597Z,12.30
2023-04-16T04:55:18.004Z,12.40
2023-04-16T04:57:45.356Z,12.40
2023-04-16T05:00:13.035Z,12.40
2023-04-16T05:02:48.179Z,12.50
2023-04-16T05:05:15.781Z,12.50
2023-04-16T05:07:43.279Z,12.50
2023-04-16T05:10:10.826Z,12.50
2023-04-16T05:12:38.158Z,12.40
2023-04-16T05:15:06.133Z,12.40
2023-04-16T05:17:33.503Z,12.40
2023-04-16T05:20:01.281Z,12.50
2023-04-16T05:22:28.819Z,12.60
2023-04-16T05:24:56.466Z,12.70
2023-04-16T05:27:23.829Z,12.70
2023-04-16T05:29:51.433Z,12.60
2023-04-16T05:32:19.085Z,12.60
2023-04-16T05:34:46.447Z,12.60
2023-04-16T05:37:13.719Z,12.60
2023-04-16T05:39:41.165Z,12.60
2023-04-16T05:42:08.471Z,12.60
2023-04-16T05:44:35.814Z,12.50
2023-04-16T05:47:03.126Z,12.60
2023-04-16T05:49:30.512Z,12.70
2023-04-16T05:51:57.813Z,12.70
2023-04-16T05:54:25.574Z,12.60
2023-04-16T05:56:52.884Z,12.60
2023-04-16T05:59:20.550Z,12.60
2023-04-16T06:01:47.878Z,12.50
2023-04-16T06:04:15.228Z,12.50
2023-04-16T06:06:42.667Z,12.40
2023-04-16T06:09:10.910Z,12.40
2023-04-16T06:11:38.489Z,12.50
2023-04-16T06:14:05.836Z,12.50
2023-04-16T06:16:33.684Z,12.60
2023-04-16T06:19:01.382Z,12.60
2023-04-16T06:21:29.241Z,12.60
2023-04-16T06:23:56.612Z,12.70
2023-04-16T06:26:23.978Z,12.70
2023-04-16T06:28:51.321Z,12.80
2023-04-16T06:31:18.988Z,12.90
2023-04-16T06:33:46.319Z,12.90
2023-04-16T06:36:13.675Z,12.90
2023-04-16T06:38:40.936Z,13.00
2023-04-16T06:41:08.305Z,13.00
2023-04-16T06:43:35.799Z,13.00
2023-04-16T06:46:03.245Z,13.00
2023-04-16T06:48:30.740Z,13.00
2023-04-16T06:50:58.194Z,13.00
2023-04-16T06:53:25.851Z,13.10
2023-04-16T06:55:53.137Z,13.10
2023-04-16T06:58:20.390Z,13.20
2023-04-16T07:00:47.761Z,13.20
2023-04-16T07:03:15.254Z,13.20
2023-04-16T07:05:42.550Z,13.20
2023-04-16T07:08:10.002Z,13.30
2023-04-16T07:10:38.076Z,13.20
2023-04-16T07:13:05.431Z,13.30
2023-04-16T07:15:32.806Z,13.30
2023-04-16T07:18:00.214Z,13.30
2023-04-16T07:20:27.541Z,13.30
2023-04-16T07:23:00.036Z,13.30
2023-04-16T07:25:27.630Z,13.30
2023-04-16T07:27:54.809Z,13.30
2023-04-16T07:30:22.277Z,13.40
2023-04-16T07:32:51.867Z,13.30
2023-04-16T07:35:20.040Z,13.40
2023-04-16T07:37:47.393Z,13.50
2023-04-16T07:40:14.719Z,13.50
2023-04-16T07:42:43.052Z,13.60
2023-04-16T07:45:10.805Z,13.70
2023-04-16T07:47:38.453Z,13.80
2023-04-16T07:50:06.489Z,13.90
2023-04-16T07:52:33.871Z,13.90
2023-04-16T07:55:01.272Z,14.00
2023-04-16T07:57:30.617Z,14.10
2023-04-16T07:59:57.962Z,14.10
2023-04-16T08:02:25.591Z,14.10
2023-04-16T08:04:53.227Z,14.20
2023-04-16T08:07:20.537Z,14.20
2023-04-16T08:09:52.396Z,14.30
2023-04-16T08:12:22.340Z,14.40
2023-04-16T08:14:58.960Z,14.40
2023-04-16T08:17:29.199Z,14.50
2023-04-16T08:19:56.945Z,14.50
2023-04-16T08:22:24.510Z,14.50
2023-04-16T08:24:52.639Z,14.60
2023-04-16T08:27:20.466Z,14.70
2023-04-16T08:29:48.570Z,14.80
2023-04-16T08:32:15.955Z,14.90
2023-04-16T08:34:43.724Z,14.90
2023-04-16T08:37:11.007Z,15.00
2023-04-16T08:39:38.375Z,15.20
2023-04-16T08:42:09.597Z,15.30
2023-04-16T08:44:43.727Z,15.40
2023-04-16T08:47:12.632Z,15.60
2023-04-16T08:49:46.230Z,15.70
2023-04-16T08:52:22.582Z,15.80
2023-04-16T08:55:00.043Z,15.90
2023-04-16T08:57:34.582Z,15.90
2023-04-16T09:00:02.606Z,16.00
2023-04-16T09:02:32.526Z,16.00
2023-04-16T09:05:01.284Z,16.00
2023-04-16T09:07:32.395Z,16.10
2023-04-16T09:10:01.900Z,16.10
2023-04-16T09:12:32.882Z,16.20
2023-04-16T09:15:03.013Z,16.30
2023-04-16T09:17:34.518Z,16.40
2023-04-16T09:20:02.289Z,16.50
2023-04-16T09:22:30.744Z,16.50
2023-04-16T09:24:58.108Z,16.60
2023-04-16T09:27:26.206Z,16.60
2023-04-16T09:29:54.086Z,16.70
2023-04-16T09:32:27.619Z,16.70
2023-04-16T09:34:57.355Z,16.70
2023-04-16T09:37:26.419Z,16.80
2023-04-16T09:40:02.231Z,16.80
2023-04-16T09:42:34.306Z,16.90
2023-04-16T09:45:04.146Z,17.10
2023-04-16T09:47:45.114Z,17.20
2023-04-16T09:50:20.032Z,17.30
2023-04-16T09:52:51.541Z,17.40
2023-04-16T09:55:27.929Z,17.50
2023-04-16T09:58:02.281Z,17.70
2023-04-16T10:00:31.355Z,17.90
2023-04-16T10:03:07.030Z,18.10
2023-04-16T10:05:34.727Z,18.30
2023-04-16T10:08:02.343Z,18.30
2023-04-16T10:10:30.615Z,18.30
2023-04-16T10:12:58.624Z,18.20
2023-04-16T10:15:26.279Z,18.30
2023-04-16T10:17:54.361Z,18.50
2023-04-16T10:20:22.751Z,18.60
2023-04-16T10:22:50.433Z,18.70
2023-04-16T10:25:18.667Z,18.70
2023-04-16T10:27:48.085Z,18.60
2023-04-16T10:30:16.722Z,18.60
2023-04-16T10:32:46.572Z,18.60
2023-04-16T10:35:20.915Z,18.60
2023-04-16T10:37:48.260Z,18.60
2023-04-16T10:40:27.128Z,18.70
2023-04-16T10:42:58.681Z,18.70
2023-04-16T10:45:37.686Z,18.70
2023-04-16T10:48:09.542Z,18.70
2023-04-16T10:50:37.546Z,18.80
2023-04-16T10:53:23.149Z,18.80
2023-04-16T10:56:15.469Z,19.00
2023-04-16T10:58:42.905Z,19.10
2023-04-16T11:01:14.453Z,19.20
2023-04-16T11:03:43.401Z,19.20
2023-04-16T11:06:23.776Z,19.30
2023-04-16T11:08:54.941Z,19.40
2023-04-16T11:11:23.608Z,19.60
2023-04-16T11:13:56.443Z,19.60
2023-04-16T11:16:26.155Z,19.80
2023-04-16T11:18:55.533Z,19.80
2023-04-16T11:21:24.702Z,19.80
2023-04-16T11:23:53.536Z,19.80
2023-04-16T11:26:29.245Z,19.80
2023-04-16T11:28:57.622Z,19.80
2023-04-16T11:31:25.040Z,19.80
2023-04-16T11:33:52.406Z,19.50
2023-04-16T11:36:19.729Z,19.50
2023-04-16T11:38:47.736Z,19.50
2023-04-16T11:41:20.478Z,19.60
2023-04-16T11:43:47.906Z,19.40
2023-04-16T11:46:26.940Z,19.30
2023-04-16T11:48:56.158Z,19.30
2023-04-16T11:51:24.070Z,19.40
2023-04-16T11:53:56.283Z,19.50
2023-04-16T11:56:31.407Z,19.60
2023-04-16T11:59:11.791Z,19.60
2023-04-16T12:01:41.776Z,19.50
2023-04-16T12:04:09.721Z,19.40
2023-04-16T12:06:37.303Z,19.50
2023-04-16T12:09:27.438Z,19.50
2023-04-16T12:11:54.759Z,19.60
2023-04-16T12:14:23.120Z,19.70
2023-04-16T12:16:50.563Z,19.80
2023-04-16T12:19:18.681Z,19.80
2023-04-16T12:21:48.460Z,19.90
2023-04-16T12:24:20.785Z,20.20
2023-04-16T12:26:52.066Z,20.30
2023-04-16T12:29:21.805Z,20.40
2023-04-16T12:31:50.564Z,20.60
2023-04-16T12:34:19.479Z,20.80
2023-04-16T12:36:48.070Z,20.60
2023-04-16T12:39:16.246Z,20.30
2023-04-16T12:41:44.687Z,20.00
2023-04-16T12:44:17.987Z,19.90
2023-04-16T12:46:45.509Z,19.90
2023-04-16T12:49:12.965Z,19.90
2023-04-16T12:51:41.043Z,20.10
2023-04-16T12:54:08.387Z,20.30
2023-04-16T12:56:36.467Z,20.40
2023-04-16T12:59:03.883Z,20.50
2023-04-16T13:01:31.214Z,20.40
2023-04-16T13:03:58.715Z,20.30
2023-04-16T13:06:26.476Z,20.30
2023-04-16T13:08:53.923Z,20.50
2023-04-16T13:11:21.249Z,20.70
2023-04-16T13:13:48.592Z,21.10
2023-04-16T13:16:16.473Z,21.40
2023-04-16T13:18:43.949Z,21.40
2023-04-16T13:21:11.474Z,21.40
2023-04-16T13:23:38.819Z,21.10
2023-04-16T13:26:06.082Z,20.80
2023-04-16T13:28:33.460Z,20.60
2023-04-16T13:31:03.391Z,20.50
2023-04-16T13:33:32.293Z,20.40
2023-04-16T13:35:59.624Z,20.80
2023-04-16T13:38:27.234Z,20.70
2023-04-16T13:40:54.631Z,20.30
2023-04-16T13:43:22.474Z,20.00
2023-04-16T13:45:49.773Z,20.00
2023-04-16T13:48:17.945Z,19.90
2023-04-16T13:50:45.390Z,20.10
2023-04-16T13:53:12.583Z,20.20
2023-04-16T13:55:40.314Z,20.40
2023-04-16T13:58:08.777Z,20.50
2023-04-16T14:00:36.145Z,20.50
2023-04-16T14:03:05.903Z,20.70
2023-04-16T14:05:33.202Z,20.80
2023-04-16T14:08:00.805Z,20.80
2023-04-16T14:10:28.072Z,20.70
2023-04-16T14:12:55.655Z,20.80
2023-04-16T14:15:22.903Z,21.10
2023-04-16T14:17:50.204Z,21.40
2023-04-16T14:22:46.731Z,22.50
2023-04-16T14:25:14.241Z,22.80
2023-04-16T14:27:41.663Z,22.50
2023-04-16T14:30:09.410Z,22.30
2023-04-16T14:32:37.253Z,22.80
2023-04-16T14:35:05.446Z,22.90
2023-04-16T14:37:35.894Z,22.50
2023-04-16T14:40:08.965Z,22.20
2023-04-16T14:42:37.207Z,22.20
2023-04-16T14:45:06.733Z,22.50
2023-04-16T14:47:35.077Z,22.80
2023-04-16T14:50:03.720Z,23.10
2023-04-16T14:52:32.741Z,23.20
2023-04-16T14:54:59.946Z,22.80
2023-04-16T14:57:27.213Z,22.80
2023-04-16T14:59:54.649Z,22.70
2023-04-16T15:02:22.252Z,22.50
2023-04-16T15:04:49.864Z,22.70
2023-04-16T15:07:17.275Z,22.70
2023-04-16T15:09:44.583Z,22.70
2023-04-16T15:12:11.986Z,22.30
2023-04-16T15:14:39.233Z,22.50
2023-04-16T15:17:06.656Z,22.90
2023-04-16T15:19:34.075Z,24.10
2023-04-16T15:22:01.711Z,24.60
2023-04-16T15:24:29.045Z,24.30
2023-04-16T15:26:56.468Z,23.50
2023-04-16T15:29:23.690Z,23.00
2023-04-16T15:31:51.187Z,23.00
2023-04-16T15:34:18.421Z,22.90
2023-04-16T15:36:45.718Z,22.90
2023-04-16T15:39:13.310Z,22.90
2023-04-16T15:41:53.646Z,22.80
2023-04-16T15:44:27.199Z,22.30
2023-04-16T15:46:54.467Z,22.00
2023-04-16T15:49:21.805Z,21.80
2023-04-16T15:51:49.108Z,21.60
2023-04-16T15:54:18.182Z,21.40
2023-04-16T15:56:46.707Z,21.20
2023-04-16T15:59:14.142Z,21.00
2023-04-16T16:01:41.388Z,21.10
2023-04-16T16:04:09.044Z,21.10
2023-04-16T16:06:38.109Z,21.10
2023-04-16T16:09:05.538Z,21.00
2023-04-16T16:11:32.839Z,20.70
2023-04-16T16:14:03.217Z,20.50
2023-04-16T16:16:31.828Z,20.20
2023-04-16T16:18:59.156Z,20.00
2023-04-16T16:21:27.361Z,19.80
2023-04-16T16:23:54.544Z,19.60
2023-04-16T16:26:23.069Z,19.50
2023-04-16T16:28:50.661Z,19.30
2023-04-16T16:31:17.953Z,19.10
2023-04-16T16:33:45.361Z,19.00
2023-04-16T16:36:12.959Z,19.00
2023-04-16T16:38:41.303Z,18.90
2023-04-16T16:41:08.938Z,18.80
2023-04-16T16:43:36.855Z,18.80
2023-04-16T16:46:05.166Z,18.60
2023-04-16T16:48:33.038Z,18.60
2023-04-16T16:51:00.800Z,18.60
2023-04-16T16:53:28.212Z,18.50
2023-04-16T16:55:55.761Z,18.40
2023-04-16T16:58:23.054Z,18.20
2023-04-16T17:00:50.507Z,18.20
2023-04-16T17:03:18.063Z,18.10
2023-04-16T17:05:45.397Z,18.10
2023-04-16T17:08:13.856Z,18.10
2023-04-16T17:10:41.342Z,18.00
2023-04-16T17:13:08.676Z,18.00
2023-04-16T17:15:36.004Z,18.00
2023-04-16T17:18:04.712Z,18.10
2023-04-16T17:20:33.821Z,18.20
2023-04-16T17:23:01.137Z,18.20
2023-04-16T17:25:28.402Z,18.20
2023-04-16T17:27:55.830Z,18.20
2023-04-16T17:30:27.828Z,18.10
2023-04-16T17:32:55.514Z,18.10
2023-04-16T17:35:23.215Z,18.10
2023-04-16T17:37:51.897Z,18.00
2023-04-16T17:40:19.321Z,18.00
2023-04-16T17:42:49.020Z,17.90
2023-04-16T17:45:16.358Z,17.90
2023-04-16T17:47:46.587Z,17.80
2023-04-16T17:50:14.147Z,17.80
2023-04-16T17:52:42.099Z,17.70
2023-04-16T17:55:11.622Z,17.70
2023-04-16T17:57:39.015Z,17.70
2023-04-16T18:00:11.128Z,17.60
2023-04-16T18:02:42.087Z,17.40
2023-04-16T18:05:09.896Z,17.30
2023-04-16T18:07:37.751Z,17.30
2023-04-16T18:10:06.305Z,17.20
2023-04-16T18:12:33.719Z,17.10
2023-04-16T18:15:01.089Z,17.10
2023-04-16T18:17:29.375Z,17.10
2023-04-16T18:19:57.150Z,17.10
2023-04-16T18:22:25.698Z,17.00
2023-04-16T18:24:55.352Z,17.00
2023-04-16T18:27:23.221Z,16.90
2023-04-16T18:29:51.435Z,16.90
2023-04-16T18:32:18.944Z,16.90
2023-04-16T18:34:46.323Z,16.90
2023-04-16T18:37:13.560Z,16.90
2023-04-16T18:39:41.867Z,16.90
2023-04-16T18:42:09.199Z,16.90
2023-04-16T18:44:36.638Z,16.70
2023-04-16T18:47:03.993Z,16.70
2023-04-16T18:49:31.593Z,16.70
2023-04-16T18:51:58.909Z,16.70
2023-04-16T18:54:26.257Z,16.70
2023-04-16T18:56:53.709Z,16.70
2023-04-16T18:59:21.242Z,16.60
2023-04-16T19:01:48.533Z,16.60
2023-04-16T19:04:15.812Z,16.50
2023-04-16T19:06:43.081Z,16.60
2023-04-16T19:09:11.688Z,16.50
2023-04-16T19:11:39.127Z,16.40
2023-04-16T19:14:07.890Z,16.40
2023-04-16T19:16:35.453Z,16.40
2023-04-16T19:19:15.121Z,16.40
2023-04-16T19:21:45.862Z,16.40
2023-04-16T19:24:16.666Z,16.40
2023-04-16T19:26:44.007Z,16.30
2023-04-16T19:29:11.833Z,16.30
2023-04-16T19:31:39.260Z,16.20
2023-04-16T19:34:06.661Z,16.20
2023-04-16T19:36:34.154Z,16.10
2023-04-16T19:39:01.480Z,16.10
2023-04-16T19:41:28.955Z,16.10
2023-04-16T19:43:56.301Z,16.20
2023-04-16T19:46:23.882Z,16.20
2023-04-16T19:48:51.377Z,16.30
2023-04-16T19:51:18.875Z,16.30
2023-04-16T19:53:49.206Z,16.30
2023-04-16T19:56:17.173Z,16.30
2023-04-16T19:58:44.838Z,16.30
2023-04-16T20:01:12.241Z,16.20
2023-04-16T20:03:39.672Z,16.20
2023-04-16T20:06:07.894Z,16.20
2023-04-16T20:08:35.271Z,16.30
2023-04-16T20:11:02.628Z,16.30
2023-04-16T20:13:30.032Z,16.30
2023-04-16T20:15:57.772Z,16.30
2023-04-16T20:18:27.626Z,16.30
2023-04-16T20:20:55.675Z,16.20
2023-04-16T20:23:22.862Z,16.30
2023-04-16T20:25:50.305Z,16.20
2023-04-16T20:28:21.459Z,16.20
2023-04-16T20:30:49.012Z,16.20
2023-04-16T20:33:16.643Z,16.20
2023-04-16T20:35:43.962Z,16.20
2023-04-16T20:38:11.319Z,16.20
2023-04-16T20:40:39.783Z,16.20
2023-04-16T20:43:10.389Z,16.30
2023-04-16T20:45:41.094Z,16.30
2023-04-16T20:48:08.679Z,16.30
2023-04-16T20:50:36.101Z,16.30
2023-04-16T20:53:03.670Z,16.30
2023-04-16T20:55:31.053Z,16.20
2023-04-16T20:57:58.414Z,16.20
2023-04-16T21:00:25.813Z,16.20
2023-04-16T21:02:54.247Z,16.20
2023-04-16T21:05:21.752Z,16.20
2023-04-16T21:07:49.242Z,16.20
2023-04-16T21:10:20.540Z,16.10
2023-04-16T21:12:49.369Z,16.10
2023-04-16T21:15:16.667Z,16.00
2023-04-16T21:17:44.075Z,16.00
2023-04-16T21:20:13.681Z,16.00
2023-04-16T21:22:41.171Z,16.00
2023-04-16T21:25:09.067Z,16.00
2023-04-16T21:27:36.492Z,16.00
2023-04-16T21:30:04.084Z,16.00
2023-04-16T21:32:31.676Z,16.10
2023-04-16T21:34:59.024Z,16.10
2023-04-16T21:37:26.235Z,16.10
2023-04-16T21:39:53.681Z,16.10
2023-04-16T21:42:20.911Z,16.10
2023-04-16T21:44:48.141Z,16.10
2023-04-16T21:47:15.857Z,16.10
2023-04-16T21:49:43.227Z,16.00
2023-04-16T21:52:19.754Z,16.00
2023-04-16T21:54:47.595Z,15.90
2023-04-16T21:57:14.849Z,16.00
2023-04-16T21:59:42.228Z,15.90
2023-04-16T22:02:10.136Z,16.00
2023-04-16T22:04:39.091Z,16.00
2023-04-16T22:07:11.897Z,16.00
2023-04-16T22:09:40.467Z,16.00
2023-04-16T22:12:10.414Z,16.00
2023-04-16T22:14:44.059Z,15.90
2023-04-16T22:17:17.335Z,15.90
2023-04-16T22:19:44.907Z,15.80
2023-04-16T22:22:12.304Z,15.80
2023-04-16T22:24:39.517Z,15.70
2023-04-16T22:27:06.872Z,15.70
2023-04-16T22:29:34.215Z,15.60
2023-04-16T22:32:02.028Z,15.50
2023-04-16T22:34:29.557Z,15.60
2023-04-16T22:36:57.036Z,15.50
2023-04-16T22:39:24.512Z,15.50
2023-04-16T22:41:51.975Z,15.50
2023-04-16T22:44:19.320Z,15.50
2023-04-16T22:46:47.059Z,15.60
2023-04-16T22:49:14.396Z,15.50
2023-04-16T22:51:41.620Z,15.50
2023-04-16T22:54:13.625Z,15.40
2023-04-16T22:56:41.453Z,15.30
2023-04-16T22:59:08.890Z,15.20
2023-04-16T23:01:36.738Z,15.10
2023-04-16T23:04:04.356Z,15.10
2023-04-16T23:06:31.836Z,15.00
2023-04-16T23:08:59.226Z,15.10
2023-04-16T23:11:26.568Z,15.00
2023-04-16T23:13:54.058Z,15.10
2023-04-16T23:16:21.465Z,15.10
2023-04-16T23:18:48.953Z,15.10
2023-04-16T23:21:16.251Z,15.10
2023-04-16T23:23:43.513Z,15.10
2023-04-16T23:26:10.838Z,15.10
2023-04-16T23:28:38.242Z,15.00
2023-04-16T23:31:07.296Z,15.00
2023-04-16T23:33:34.931Z,14.90
2023-04-16T23:36:02.440Z,14.90
2023-04-16T23:38:30.006Z,14.80
2023-04-16T23:40:57.336Z,14.90
2023-04-16T23:43:24.837Z,14.90
2023-04-16T23:45:52.367Z,14.80
2023-04-16T23:48:19.875Z,14.80
2023-04-16T23:50:47.167Z,14.80
2023-04-16T23:53:14.595Z,14.80
2023-04-16T23:55:41.797Z,14.90
2023-04-16T23:58:09.302Z,14.80
